Portland Hillsboro Airport
KHIO : now visible

Airfield :











YOU CAN JOIN US ON...

 
LOGIN :

Register | Disclaimer

   EN    FR    IT 

 









Legend :    VFR   Marginal VFR   IFR   Intensive IFR   Very Intensive IFR
Visi :
Ceiling :
>= 8 km
>= 3000ft
5 to 8 km
1000 to 3000 ft
1500m to 5 km
500 to 1000 ft
800 to 1500m
200 to 500 ft
< 800m
< 200 ft
Symbols :   Thunderstorms  Fog  Heavy snow  Heavy precipitations  Wind > 20 kt






- Airport Elevation : 208 ft


KHIO - Portland Hillsboro

CURRENT METAR :
  • 291253Z 35003KT 10SM OVC029 12/11 A3017 RMK AO2 SLP215 T01170106

EXPIRED METARs :
  • 291153Z 00000KT 10SM OVC029 12/11 A3016 RMK AO2 SLP212 T01170106 10128 20094 53002
  • 291053Z 00000KT 10SM OVC028 12/10 A3016 RMK AO2 SLP211 T01170100

TAF KHIO
Valid from the 29 at 12:00 until the 30 at 12:00 UTC


291124Z 2912/3012 VRB03KT P6SM OVC028
FM292000 VRB03KT P6SM BKN035
FM292200 30007KT P6SM SCT050
KZSE FIR / North America



MET'MAP, your aeronautical weather chart ! - Copyright ORBIFLY December 2007 - Disclaimer

ORBIFLY MET'MAP TEAM :

Programming & Development : Alexandra Zaïnal
Original concept : Baudouin d'Aumeries
Technical & hardware support : Manuel Goepfert
Assistance : Marc-Olivier Méhu




SOURCES & CREDITS :

   NOAA       Earth
Advisory